Time;durP1;ratioP1;P1;durP2;ratioP2;P2;SDS_P1;SDS_P2;PMS_P1;PMS_P2;Temp;Humidity;BMP_temperature;BMP_pressure;BME280_temperature;BME280_humidity;BME280_pressure;Samples;Min_cycle;Max_cycle;Signal;HPM_P1;HPM_P2
2022/10/05 00:01:51;;;;;;;;;;;;;;;68.73;0.00;100787.53;5037173;27;20270;-63
2022/10/05 00:04:22;;;;;;;;;;;;;;;68.83;0.00;100793.88;5036411;27;19928;-62
2022/10/05 00:06:54;;;;;;;;;;;;;;;69.67;0.00;100791.88;5034072;27;19921;-62
2022/10/05 00:09:21;;;;;;;;;;;;;;;69.89;0.00;100798.69;5035339;27;19921;-62
2022/10/05 00:11:47;;;;;;;;;;;;;;;66.43;0.00;100791.81;5038202;27;19944;-62
2022/10/05 00:14:15;;;;;;;;;;;;;;;68.15;0.00;100777.63;5050314;27;19928;-62
2022/10/05 00:16:42;;;;;;;;;;;;;;;69.97;0.00;100784.09;5057450;27;20409;-62
2022/10/05 00:19:19;;;;;;;;;;;;;;;66.42;0.00;100784.34;5061553;27;19926;-62
2022/10/05 00:21:46;;;;;;;;;;;;;;;67.42;0.00;100787.00;5051952;27;19921;-62
2022/10/05 00:24:15;;;;;;;;;;;;;;;67.13;0.00;100775.97;5054411;27;19920;-62
2022/10/05 00:26:41;;;;;;;;;;;;;;;67.93;0.00;100771.50;5071810;27;19944;-62
2022/10/05 00:29:21;;;;;;;;;;;;;;;67.03;0.00;100778.50;5053423;27;19916;-62
2022/10/05 00:31:48;;;;;;;;;;;;;;;65.85;0.00;100776.22;5044931;27;19928;-62
2022/10/05 00:34:14;;;;;;;;;;;;;;;65.83;0.00;100773.16;5055011;27;19943;-62
2022/10/05 00:36:41;;;;;;;;;;;;;;;65.11;0.00;100770.69;5070049;27;20325;-62
2022/10/05 00:39:08;;;;;;;;;;;;;;;64.94;0.49;100763.06;5055073;27;19970;-63
2022/10/05 00:41:57;;;;;;;;;;;;;;;67.20;0.00;100777.84;5046484;27;20479;-63
2022/10/05 00:44:41;;;;;;;;;;;;;;;67.46;0.00;100774.56;5051348;27;20029;-62
2022/10/05 00:47:33;;;;;;;;;;;;;;;67.30;0.00;100778.28;5051219;27;19927;-63
2022/10/05 00:50:14;;;;;;;;;;;;;;;64.76;0.51;100773.84;5027692;27;19921;-62
2022/10/05 00:52:49;;;;;;;;;;;;;;;61.46;1.39;100773.06;5067124;27;19956;-62
2022/10/05 00:55:18;;;;;;;;;;;;;;;59.44;2.26;100776.72;5059918;27;19928;-63
2022/10/05 00:57:55;;;;;;;;;;;;;;;59.41;2.83;100777.91;5056839;27;19936;-63
2022/10/05 01:00:24;;;;;;;;;;;;;;;59.07;3.12;100776.63;5059294;27;19921;-62
2022/10/05 01:03:15;;;;;;;;;;;;;;;58.70;3.11;100770.66;5065774;27;19927;-62
2022/10/05 01:05:41;;;;;;;;;;;;;;;58.09;3.07;100780.13;5058435;27;20300;-62
2022/10/05 01:08:13;;;;;;;;;;;;;;;57.74;2.95;100781.41;5061080;27;19921;-62
2022/10/05 01:10:52;;;;;;;;;;;;;;;57.39;3.76;100792.94;5061406;27;19967;-62
2022/10/05 01:13:18;;;;;;;;;;;;;;;57.05;4.26;100792.75;5065681;27;19920;-62
2022/10/05 01:16:03;;;;;;;;;;;;;;;56.13;4.59;100790.06;5058810;27;19977;-62
2022/10/05 01:18:38;;;;;;;;;;;;;;;55.82;4.42;100783.44;5059833;27;19921;-64
2022/10/05 01:21:23;;;;;;;;;;;;;;;55.51;4.96;100784.78;5045726;27;19927;-63
2022/10/05 01:23:59;;;;;;;;;;;;;;;55.06;4.74;100792.81;5061013;27;19924;-63
2022/10/05 01:26:37;;;;;;;;;;;;;;;54.97;4.45;100801.34;5058669;27;19921;-63
2022/10/05 01:29:03;;;;;;;;;;;;;;;54.44;4.61;100796.75;5057206;27;20369;-64
2022/10/05 01:31:43;;;;;;;;;;;;;;;54.48;4.44;100794.25;5045594;27;19946;-62
2022/10/05 01:34:16;;;;;;;;;;;;;;;54.30;5.11;100798.19;5060912;27;19921;-63
2022/10/05 01:36:48;;;;;;;;;;;;;;;54.27;5.23;100805.16;5067626;27;19959;-63
2022/10/05 01:39:33;;;;;;;;;;;;;;;54.25;4.90;100810.78;5052274;27;19921;-63
2022/10/05 01:42:00;;;;;;;;;;;;;;;54.03;5.78;100806.31;5050674;27;20359;-63
2022/10/05 01:44:29;;;;;;;;;;;;;;;53.69;5.48;100804.28;5051561;27;20000;-62
2022/10/05 01:47:20;;;;;;;;;;;;;;;53.89;5.31;100804.84;5068533;27;19919;-62
2022/10/05 01:50:10;;;;;;;;;;;;;;;53.87;5.92;100805.41;5060285;27;19974;-62
2022/10/05 01:52:45;;;;;;;;;;;;;;;53.38;6.56;100808.19;5061360;27;19928;-62
2022/10/05 01:55:38;;;;;;;;;;;;;;;52.98;6.38;100824.91;5057418;27;20313;-62
2022/10/05 01:58:22;;;;;;;;;;;;;;;53.27;5.49;100820.81;5058579;27;20374;-61
2022/10/05 02:00:58;;;;;;;;;;;;;;;53.28;6.28;100813.66;5068539;27;19921;-61
2022/10/05 02:03:32;;;;;;;;;;;;;;;53.14;6.43;100826.66;5063296;27;19925;-62
2022/10/05 02:06:01;;;;;;;;;;;;;;;53.09;6.30;100822.56;5058058;27;19921;-61
2022/10/05 02:08:38;;;;;;;;;;;;;;;53.10;5.85;100829.94;5060810;27;20398;-61
2022/10/05 02:11:07;;;;;;;;;;;;;;;53.28;6.39;100828.19;5059255;27;19918;-61
2022/10/05 02:13:33;;;;;;;;;;;;;;;53.28;6.49;100824.50;5059019;27;20011;-61
2022/10/05 02:16:02;;;;;;;;;;;;;;;53.13;6.33;100834.59;5061843;27;19937;-61
2022/10/05 02:18:31;;;;;;;;;;;;;;;53.10;6.40;100835.72;5062107;27;20028;-61
2022/10/05 02:21:04;;;;;;;;;;;;;;;53.11;5.75;100840.19;5060523;27;19964;-62
2022/10/05 02:23:32;;;;;;;;;;;;;;;52.94;5.85;100833.94;5060607;27;19921;-61
2022/10/05 02:26:00;;;;;;;;;;;;;;;52.91;6.27;100837.19;5110718;27;19982;-61
2022/10/05 02:28:45;;;;;;;;;;;;;;;52.84;6.37;100842.34;5067715;27;20020;-61
2022/10/05 02:31:16;;;;;;;;;;;;;;;52.64;6.81;100845.91;5078972;27;20063;-61
2022/10/05 02:33:46;;;;;;;;;;;;;;;52.65;5.82;100844.56;5116863;27;20419;-61
2022/10/05 02:36:18;;;;;;;;;;;;;;;52.60;6.65;100856.28;5068406;27;19942;-62
2022/10/05 02:39:08;;;;;;;;;;;;;;;52.61;6.71;100852.84;5046454;27;19928;-62
2022/10/05 02:41:43;;;;;;;;;;;;;;;52.51;6.02;100837.97;5047383;27;19985;-61
2022/10/05 02:44:19;;;;;;;;;;;;;;;52.60;6.68;100867.88;5048247;27;19928;-61
2022/10/05 02:46:48;;;;;;;;;;;;;;;52.57;6.61;100863.19;5057314;27;20464;-61
2022/10/05 02:49:36;;;;;;;;;;;;;;;52.43;6.12;100871.09;5056782;27;19921;-61
2022/10/05 02:52:04;;;;;;;;;;;;;;;52.32;6.27;100877.88;5061229;27;20007;-61
2022/10/05 02:54:42;;;;;;;;;;;;;;;52.25;6.88;100875.63;5066917;27;19921;-61
2022/10/05 02:57:11;;;;;;;;;;;;;;;52.17;6.71;100884.22;5053288;27;19970;-61
2022/10/05 03:00:04;;;;;;;;;;;;;;;52.12;6.69;100881.41;5054780;27;19921;-62
2022/10/05 03:02:35;;;;;;;;;;;;;;;51.99;6.67;100873.44;5054420;27;19925;-63
2022/10/05 03:05:27;;;;;;;;;;;;;;;51.95;6.90;100878.78;5057908;27;20274;-63
2022/10/05 03:08:03;;;;;;;;;;;;;;;51.87;6.52;100883.63;5076418;27;19970;-60
2022/10/05 03:10:33;;;;;;;;;;;;;;;51.84;7.23;100891.31;5041946;27;20505;-60
2022/10/05 03:13:17;;;;;;;;;;;;;;;51.80;6.68;100895.88;5057904;27;19923;-63
2022/10/05 03:16:03;;;;;;;;;;;;;;;51.74;6.80;100898.88;5054994;27;19947;-61
2022/10/05 03:18:41;;;;;;;;;;;;;;;51.69;7.18;100896.81;5054923;27;19924;-62
2022/10/05 03:21:08;;;;;;;;;;;;;;;51.59;6.93;100904.34;5053080;27;19920;-62
2022/10/05 03:23:43;;;;;;;;;;;;;;;51.53;7.34;100900.72;5053619;27;19932;-62
2022/10/05 03:26:22;;;;;;;;;;;;;;;51.46;7.55;100907.16;5056739;27;19922;-64
2022/10/05 03:29:11;;;;;;;;;;;;;;;51.47;7.07;100909.50;5049309;27;20410;-62
2022/10/05 03:31:42;;;;;;;;;;;;;;;51.66;7.61;100910.28;5074001;27;19928;-62
2022/10/05 03:34:08;;;;;;;;;;;;;;;51.78;7.20;100913.06;5056262;27;20305;-63
2022/10/05 03:36:45;;;;;;;;;;;;;;;51.87;7.12;100918.44;5052282;28;20003;-61
2022/10/05 03:39:18;;;;;;;;;;;;;;;51.93;6.84;100925.72;5045738;28;19928;-61
2022/10/05 03:41:47;;;;;;;;;;;;;;;51.91;6.95;100924.72;5047471;28;19956;-62
2022/10/05 03:44:29;;;;;;;;;;;;;;;51.91;7.55;100928.41;5093229;27;19922;-64
2022/10/05 03:47:13;;;;;;;;;;;;;;;51.89;6.85;100933.97;5101793;27;19923;-63
2022/10/05 03:50:01;;;;;;;;;;;;;;;51.93;6.84;100939.44;5103290;27;20018;-62
2022/10/05 03:52:36;;;;;;;;;;;;;;;51.83;7.62;100936.16;5049459;28;19920;-65
2022/10/05 03:55:17;;;;;;;;;;;;;;;51.85;7.07;100945.09;5048518;28;20003;-65
2022/10/05 03:57:44;;;;;;;;;;;;;;;51.91;7.36;100936.31;5050232;28;19920;-65
2022/10/05 04:00:13;;;;;;;;;;;;;;;51.84;7.32;100948.53;5049416;28;20370;-65
2022/10/05 04:02:48;;;;;;;;;;;;;;;51.77;7.20;100941.25;5049257;28;19920;-64
2022/10/05 04:05:26;;;;;;;;;;;;;;;51.41;8.24;100948.59;5048766;28;19921;-64
2022/10/05 04:07:57;;;;;;;;;;;;;;;51.32;8.06;100950.50;5049800;28;19933;-64
2022/10/05 04:10:29;;;;;;;;;;;;;;;51.34;8.12;100952.84;5049706;28;19925;-64
2022/10/05 04:13:05;;;;;;;;;;;;;;;51.40;7.98;100947.03;5050311;28;19921;-64
2022/10/05 04:15:41;;;;;;;;;;;;;;;51.37;8.11;100951.81;5051679;27;19921;-64
2022/10/05 04:18:29;;;;;;;;;;;;;;;51.45;7.96;100955.66;5050645;27;19945;-63
2022/10/05 04:21:03;;;;;;;;;;;;;;;51.46;7.99;100959.31;5051533;28;19921;-64
2022/10/05 04:23:32;;;;;;;;;;;;;;;51.36;8.32;100961.84;5034327;28;19921;-64
2022/10/05 04:26:05;;;;;;;;;;;;;;;51.27;7.99;100954.25;5051269;27;19921;-64
2022/10/05 04:28:41;;;;;;;;;;;;;;;51.19;7.90;100964.91;5032687;28;19921;-64
2022/10/05 04:31:10;;;;;;;;;;;;;;;50.94;8.65;100961.19;5044673;27;20008;-64
2022/10/05 04:33:42;;;;;;;;;;;;;;;50.94;8.44;100961.19;5051130;28;19963;-64
2022/10/05 04:36:23;;;;;;;;;;;;;;;50.84;8.41;100967.91;5051298;28;19924;-64
2022/10/05 04:39:06;;;;;;;;;;;;;;;50.62;8.78;100963.88;5052837;27;19927;-64
2022/10/05 04:41:44;;;;;;;;;;;;;;;50.74;8.69;100973.25;5052216;28;19932;-64
2022/10/05 04:44:22;;;;;;;;;;;;;;;50.61;8.76;100970.19;5052483;28;19920;-64
2022/10/05 04:46:49;;;;;;;;;;;;;;;50.67;8.93;100968.84;5052385;28;20292;-64
2022/10/05 04:49:21;;;;;;;;;;;;;;;50.78;8.09;100977.41;5052372;28;19961;-64
2022/10/05 04:52:11;;;;;;;;;;;;;;;50.77;8.13;100969.28;5050857;28;20388;-64
2022/10/05 04:54:56;;;;;;;;;;;;;;;50.91;7.94;100979.66;5041040;27;20426;-64
2022/10/05 04:57:40;;;;;;;;;;;;;;;50.81;8.35;100975.53;5050983;28;20023;-64
2022/10/05 05:00:21;;;;;;;;;;;;;;;51.11;8.00;100986.31;5050913;28;20433;-64
2022/10/05 05:03:12;;;;;;;;;;;;;;;51.15;8.48;100978.91;5051059;28;19925;-64
2022/10/05 05:05:54;;;;;;;;;;;;;;;51.12;8.42;100973.41;5032420;28;19920;-65
2022/10/05 05:08:23;;;;;;;;;;;;;;;50.97;8.84;100977.47;5052137;28;19924;-64
2022/10/05 05:11:13;;;;;;;;;;;;;;;50.97;7.97;100983.28;5052116;28;20281;-64
2022/10/05 05:13:51;;;;;;;;;;;;;;;50.92;8.02;100980.44;5045579;28;20273;-64
2022/10/05 05:16:18;;;;;;;;;;;;;;;50.81;8.24;100986.34;5050627;28;19920;-64
2022/10/05 05:18:48;;;;;;;;;;;;;;;50.65;8.90;100979.38;5050941;28;19961;-63
2022/10/05 05:21:17;;;;;;;;;;;;;;;50.56;8.94;100986.28;5049684;28;19920;-64
2022/10/05 05:23:50;;;;;;;;;;;;;;;50.39;8.88;100979.88;5049366;28;19927;-64
2022/10/05 05:26:23;;;;;;;;;;;;;;;50.37;8.61;100977.50;5050110;28;19999;-64
2022/10/05 05:28:58;;;;;;;;;;;;;;;50.32;9.26;100978.31;5050230;28;19935;-64
2022/10/05 05:31:31;;;;;;;;;;;;;;;50.15;9.43;100972.66;5049692;28;19921;-64
2022/10/05 05:33:57;;;;;;;;;;;;;;;50.22;8.83;100982.84;5050926;28;19927;-64
2022/10/05 05:36:37;;;;;;;;;;;;;;;50.25;9.40;100981.78;5049685;28;19916;-65
2022/10/05 05:39:12;;;;;;;;;;;;;;;50.11;9.31;100985.84;5049761;28;19920;-65
2022/10/05 05:42:03;;;;;;;;;;;;;;;50.10;9.11;100984.28;5049930;28;20000;-64
2022/10/05 05:45:06;;;;;;;;;;;;;;;50.00;9.73;100980.91;5023133;28;19921;-63
2022/10/05 05:47:36;;;;;;;;;;;;;;;49.98;9.60;100979.84;4973619;28;19921;-64
2022/10/05 05:50:03;;;;;;;;;;;;;;;49.98;9.62;100992.19;5036620;28;20393;-64
2022/10/05 05:52:50;;;;;;;;;;;;;;;49.98;8.82;100980.63;5049443;28;19925;-64
2022/10/05 05:55:23;;;;;;;;;;;;;;;50.07;9.42;100976.66;5050010;27;20341;-64
2022/10/05 05:57:54;;;;;;;;;;;;;;;50.14;9.17;100987.66;5049784;28;19924;-64
2022/10/05 06:00:27;;;;;;;;;;;;;;;50.14;9.42;100987.66;5049265;28;19928;-64
2022/10/05 06:03:17;;;;;;;;;;;;;;;50.26;9.31;100983.34;5061399;27;19970;-64
2022/10/05 06:05:44;;;;;;;;;;;;;;;50.14;9.91;100982.66;5053830;27;19921;-64
2022/10/05 06:08:15;;;;;;;;;;;;;;;50.20;9.52;100986.28;5048314;28;19924;-64
2022/10/05 06:10:52;;;;;;;;;;;;;;;49.89;9.69;100990.41;5046316;28;19920;-64
2022/10/05 06:13:32;;;;;;;;;;;;;;;49.85;9.38;100989.91;5052271;27;19924;-62
2022/10/05 06:16:04;;;;;;;;;;;;;;;50.09;9.81;100991.34;5048972;28;20434;-63
2022/10/05 06:18:31;;;;;;;;;;;;;;;50.13;9.50;100991.88;5048425;27;19924;-63
2022/10/05 06:21:21;;;;;;;;;;;;;;;50.11;9.28;100991.63;5046216;28;20011;-63
2022/10/05 06:24:14;;;;;;;;;;;;;;;50.11;9.99;100994.53;5041132;28;19929;-64
2022/10/05 06:26:59;;;;;;;;;;;;;;;50.09;9.59;101000.03;5044456;27;19973;-63
2022/10/05 06:29:32;;;;;;;;;;;;;;;50.05;9.97;100991.66;5051209;27;19929;-63
2022/10/05 06:32:02;;;;;;;;;;;;;;;49.95;9.37;100989.59;5055611;27;19959;-63
2022/10/05 06:34:28;;;;;;;;;;;;;;;49.87;9.99;100983.59;5070489;27;19990;-63
2022/10/05 06:36:59;;;;;;;;;;;;;;;49.87;9.75;100993.03;5058928;27;19928;-63
2022/10/05 06:39:40;;;;;;;;;;;;;;;49.78;10.20;100990.47;5087769;27;20451;-63
2022/10/05 06:42:18;;;;;;;;;;;;;;;49.83;9.96;100992.53;5096958;27;20284;-63
2022/10/05 06:45:11;;;;;;;;;;;;;;;49.70;9.75;100992.34;5085358;27;19964;-63
2022/10/05 06:48:21;;;;;;;;;;;;;;;49.85;10.07;100995.69;5068605;27;19948;-63
2022/10/05 06:51:23;;;;;;;;;;;;;;;49.91;10.55;100993.53;5125594;27;19984;-63
2022/10/05 06:54:20;;;;;;;;;;;;;;;49.98;10.16;100986.41;5027951;28;19928;-63
2022/10/05 06:57:11;;;;;;;;;;;;;;;50.03;9.73;100988.50;5028789;28;19979;-63
2022/10/05 06:59:57;;;;;;;;;;;;;;;50.00;9.82;100983.03;5021100;28;20428;-63
2022/10/05 07:02:29;;;;;;;;;;;;;;;49.82;10.21;100982.31;5048898;28;19943;-63
2022/10/05 07:05:19;;;;;;;;;;;;;;;49.65;10.34;100987.38;5048615;28;20293;-62
2022/10/05 07:07:54;;;;;;;;;;;;;;;49.70;9.67;100980.78;5082867;27;20372;-62
2022/10/05 07:10:31;;;;;;;;;;;;;;;49.74;9.61;100990.00;5067470;27;19927;-62
2022/10/05 07:13:08;;;;;;;;;;;;;;;49.75;9.50;100980.00;5061134;27;19927;-63
2022/10/05 07:15:40;;;;;;;;;;;;;;;49.51;10.05;100982.69;5093559;27;20453;-63
2022/10/05 07:18:40;;;;;;;;;;;;;;;49.36;10.30;100973.56;5083986;27;19921;-63
2022/10/05 07:21:16;;;;;;;;;;;;;;;49.32;10.13;100976.72;5036156;27;20289;-63
2022/10/05 07:24:06;;;;;;;;;;;;;;;49.27;10.11;100977.53;5070994;27;19931;-64
2022/10/05 07:26:52;;;;;;;;;;;;;;;49.19;10.52;100974.38;5026035;28;19922;-64
2022/10/05 07:29:27;;;;;;;;;;;;;;;49.15;10.17;100978.84;5090753;27;19919;-64
2022/10/05 07:32:06;;;;;;;;;;;;;;;49.12;10.67;100979.91;5069964;27;19960;-64
2022/10/05 07:34:35;;;;;;;;;;;;;;;49.02;10.50;100991.00;5121224;27;19941;-64
2022/10/05 07:40:00;;;;;;;;;;;;;;;48.80;10.42;100982.31;5053665;27;20015;-64
2022/10/05 07:42:33;;;;;;;;;;;;;;;48.67;10.73;100980.78;5060326;27;19923;-64
2022/10/05 07:45:26;;;;;;;;;;;;;;;48.75;10.61;100986.00;5094626;28;19965;-64
2022/10/05 07:47:58;;;;;;;;;;;;;;;48.63;11.27;100996.75;5035102;28;19925;-64
2022/10/05 07:50:30;;;;;;;;;;;;;;;48.53;10.55;100996.22;5081098;28;20304;-64
2022/10/05 07:53:04;;;;;;;;;;;;;;;48.19;10.86;100997.47;5075063;28;19911;-64
2022/10/05 07:55:33;;;;;;;;;;;;;;;47.50;11.41;101001.41;5080764;28;20355;-64
2022/10/05 07:58:00;;;;;;;;;;;;;;;47.79;11.37;101000.22;5093300;28;19913;-64
2022/10/05 08:00:44;;;;;;;;;;;;;;;47.85;10.80;100994.47;5081630;28;19919;-64
2022/10/05 08:03:16;;;;;;;;;;;;;;;47.81;11.17;100993.94;5080392;28;19927;-64
2022/10/05 08:05:45;;;;;;;;;;;;;;;47.99;10.95;100993.50;5095509;27;19924;-64
2022/10/05 08:08:23;;;;;;;;;;;;;;;47.64;10.84;101013.25;5090772;28;19920;-64
2022/10/05 08:11:25;;;;;;;;;;;;;;;47.34;11.30;100996.31;5081500;28;19919;-65
2022/10/05 08:13:55;;;;;;;;;;;;;;;47.42;10.62;101000.31;5038482;28;19921;-64
2022/10/05 08:16:24;;;;;;;;;;;;;;;47.56;10.61;100998.56;5079583;28;19919;-64
2022/10/05 08:18:54;;;;;;;;;;;;;;;47.50;10.35;101004.28;5081770;28;20006;-64
2022/10/05 08:21:43;;;;;;;;;;;;;;;47.44;10.86;101005.56;5094549;28;19917;-64
2022/10/05 08:24:21;;;;;;;;;;;;;;;47.34;10.86;101001.31;5080972;28;19919;-64
2022/10/05 08:26:54;;;;;;;;;;;;;;;47.29;10.91;100997.09;5080988;28;19961;-64
2022/10/05 08:29:26;;;;;;;;;;;;;;;47.36;10.64;100999.47;5094740;27;19928;-64
2022/10/05 08:32:11;;;;;;;;;;;;;;;47.26;10.71;100998.13;5085312;27;19939;-64
2022/10/05 08:34:47;;;;;;;;;;;;;;;47.07;11.24;101014.22;5086061;27;20415;-64
2022/10/05 08:37:34;;;;;;;;;;;;;;;47.17;10.97;101012.72;5085480;27;19923;-64
2022/10/05 08:40:22;;;;;;;;;;;;;;;47.02;11.31;101009.97;5032377;28;19982;-64
2022/10/05 08:42:50;;;;;;;;;;;;;;;47.08;11.34;101012.91;5032633;28;19921;-64
2022/10/05 08:45:16;;;;;;;;;;;;;;;46.34;11.42;101014.34;5032257;28;20405;-64
2022/10/05 08:47:56;;;;;;;;;;;;;;;46.79;11.42;101011.91;5032363;28;20015;-64
2022/10/05 08:50:28;;;;;;;;;;;;;;;46.88;11.06;101008.84;5034681;28;19967;-64
2022/10/05 08:53:11;;;;;;;;;;;;;;;46.90;11.47;101012.00;5052024;28;20371;-64
2022/10/05 08:55:46;;;;;;;;;;;;;;;46.96;11.33;101009.94;5052484;28;19928;-64
2022/10/05 08:58:27;;;;;;;;;;;;;;;46.95;11.25;101008.38;5052068;28;19917;-64
2022/10/05 09:01:01;;;;;;;;;;;;;;;46.98;11.32;101012.31;5050964;28;20378;-63
2022/10/05 09:03:45;;;;;;;;;;;;;;;47.02;11.25;101006.31;5051895;28;20001;-64
2022/10/05 09:06:25;;;;;;;;;;;;;;;46.90;11.37;101012.00;5049642;28;20001;-64
2022/10/05 09:08:55;;;;;;;;;;;;;;;46.74;11.07;101006.88;5051888;28;19927;-64
2022/10/05 09:11:39;;;;;;;;;;;;;;;46.73;11.01;101001.63;5051910;28;19928;-64
2022/10/05 09:14:05;;;;;;;;;;;;;;;46.87;11.45;101001.53;5051795;28;19944;-64
2022/10/05 09:16:36;;;;;;;;;;;;;;;46.89;11.37;101006.75;5051823;28;20001;-64
2022/10/05 09:19:11;;;;;;;;;;;;;;;46.88;11.18;101008.84;5051984;28;19921;-64
2022/10/05 09:21:41;;;;;;;;;;;;;;;46.93;11.02;100999.47;5051415;28;19925;-64
2022/10/05 09:24:10;;;;;;;;;;;;;;;46.81;11.05;101006.44;5051822;27;19920;-64
2022/10/05 09:26:39;;;;;;;;;;;;;;;46.62;11.35;101008.06;5051854;28;19928;-64
2022/10/05 09:29:24;;;;;;;;;;;;;;;46.66;11.81;101014.38;5051521;28;19985;-64
2022/10/05 09:31:59;;;;;;;;;;;;;;;46.85;11.74;101006.97;5051567;28;20619;-64
2022/10/05 09:34:29;;;;;;;;;;;;;;;46.88;11.65;101020.38;5051188;28;20011;-64
2022/10/05 09:37:12;;;;;;;;;;;;;;;46.86;11.75;101011.47;5051611;28;19927;-63
2022/10/05 09:39:42;;;;;;;;;;;;;;;46.73;11.50;101019.69;5051011;28;19975;-64
2022/10/05 09:42:09;;;;;;;;;;;;;;;46.52;11.91;101004.59;5051312;28;19921;-64
2022/10/05 09:44:55;;;;;;;;;;;;;;;46.53;11.53;101005.41;5050257;28;20367;-64
2022/10/05 09:47:47;;;;;;;;;;;;;;;46.60;11.52;100999.16;5051379;28;19921;-64
2022/10/05 09:50:30;;;;;;;;;;;;;;;46.67;11.70;100998.69;5051535;28;19925;-64
2022/10/05 09:53:03;;;;;;;;;;;;;;;46.78;11.98;100992.28;5051178;28;19925;-64
2022/10/05 09:55:48;;;;;;;;;;;;;;;46.88;11.73;100991.59;5049578;28;20382;-64
2022/10/05 09:58:22;;;;;;;;;;;;;;;46.78;11.86;100992.28;5049908;28;20286;-64
2022/10/05 10:00:52;;;;;;;;;;;;;;;46.63;11.36;101003.91;5050757;28;19921;-64
2022/10/05 10:03:38;;;;;;;;;;;;;;;46.59;11.64;100997.59;5049761;28;19921;-64
2022/10/05 10:06:16;;;;;;;;;;;;;;;46.63;11.51;100995.28;5051039;28;19921;-64
2022/10/05 10:08:42;;;;;;;;;;;;;;;46.61;11.46;100995.00;5051129;27;20323;-64
2022/10/05 10:11:44;;;;;;;;;;;;;;;46.73;11.82;100995.88;5050970;28;20358;-64
2022/10/05 10:14:19;;;;;;;;;;;;;;;46.65;11.44;101004.19;4989737;28;19922;-63
2022/10/05 10:16:52;;;;;;;;;;;;;;;46.45;11.76;101005.06;5042316;28;19921;-63
2022/10/05 10:19:24;;;;;;;;;;;;;;;46.47;12.10;101007.41;5050332;28;20010;-63
2022/10/05 10:22:10;;;;;;;;;;;;;;;46.44;12.15;101002.69;5050386;28;20387;-63
2022/10/05 10:24:47;;;;;;;;;;;;;;;46.34;11.74;101011.47;5050833;28;19931;-63
2022/10/05 10:27:36;;;;;;;;;;;;;;;46.19;12.19;101005.03;5050609;28;20003;-63
2022/10/05 10:30:17;;;;;;;;;;;;;;;46.30;12.23;101013.75;5051074;28;19928;-64
2022/10/05 10:33:10;;;;;;;;;;;;;;;46.26;12.13;101010.34;5050857;28;19928;-64
2022/10/05 10:35:40;;;;;;;;;;;;;;;46.36;12.03;100997.38;5050557;28;19921;-64
2022/10/05 10:38:22;;;;;;;;;;;;;;;46.28;11.69;101001.19;5050735;28;19962;-64
2022/10/05 10:41:08;;;;;;;;;;;;;;;46.17;12.34;100995.34;5050638;28;19948;-64
2022/10/05 10:43:58;;;;;;;;;;;;;;;46.22;11.84;101009.78;5050440;28;19925;-64
2022/10/05 10:46:26;;;;;;;;;;;;;;;46.03;11.93;101003.56;5050563;28;19928;-64
2022/10/05 10:49:02;;;;;;;;;;;;;;;46.11;12.04;100992.41;5050470;28;19919;-64
2022/10/05 10:51:43;;;;;;;;;;;;;;;45.80;12.36;100995.97;5050220;28;19925;-64
2022/10/05 10:54:35;;;;;;;;;;;;;;;46.04;11.84;100990.78;5049934;28;19917;-64
2022/10/05 10:57:12;;;;;;;;;;;;;;;46.13;12.24;101009.13;5050576;28;19921;-63
2022/10/05 11:00:01;;;;;;;;;;;;;;;46.24;11.71;101006.38;5050358;28;19960;-64
2022/10/05 11:02:48;;;;;;;;;;;;;;;46.17;11.82;101013.38;5050144;28;20415;-64
2022/10/05 11:05:36;;;;;;;;;;;;;;;46.12;11.67;101010.44;5049726;28;19927;-64
2022/10/05 11:08:17;;;;;;;;;;;;;;;46.05;11.54;101011.69;5050755;27;19970;-64
2022/10/05 11:11:02;;;;;;;;;;;;;;;46.11;11.67;100997.34;5050263;28;19921;-64
2022/10/05 11:13:41;;;;;;;;;;;;;;;46.06;11.67;100996.00;5049994;28;19921;-64
2022/10/05 11:16:25;;;;;;;;;;;;;;;45.64;12.62;100994.47;5050059;28;19926;-64
2022/10/05 11:19:10;;;;;;;;;;;;;;;45.68;12.45;101002.84;5050296;27;19921;-64
2022/10/05 11:21:51;;;;;;;;;;;;;;;45.69;12.36;101010.97;5049464;28;19924;-64
2022/10/05 11:24:37;;;;;;;;;;;;;;;45.78;12.35;101005.06;5049751;28;20362;-63
2022/10/05 11:27:04;;;;;;;;;;;;;;;45.89;12.43;101015.13;5049971;28;19921;-63
2022/10/05 11:29:58;;;;;;;;;;;;;;;45.89;13.09;101012.25;5049725;28;19921;-63
2022/10/05 11:32:30;;;;;;;;;;;;;;;46.07;13.36;101012.75;5049879;28;20290;-63
2022/10/05 11:35:07;;;;;;;;;;;;;;;46.16;13.69;101014.69;5049978;28;19928;-63
2022/10/05 11:37:36;;;;;;;;;;;;;;;45.95;13.52;101018.84;5049729;28;19921;-63
2022/10/05 11:40:17;;;;;;;;;;;;;;;45.63;14.90;101015.03;5049855;28;19917;-63
2022/10/05 11:42:48;;;;;;;;;;;;;;;45.47;15.23;101014.31;5049926;28;19924;-63
2022/10/05 11:45:24;;;;;;;;;;;;;;;45.85;15.22;101020.31;5049832;28;19946;-63
2022/10/05 11:48:07;;;;;;;;;;;;;;;46.14;15.34;101025.88;5049986;28;20703;-63
2022/10/05 11:50:37;;;;;;;;;;;;;;;46.32;15.20;101042.78;5049728;28;19924;-63
2022/10/05 11:53:18;;;;;;;;;;;;;;;46.20;15.94;101046.88;5049627;28;19925;-63
2022/10/05 11:55:56;;;;;;;;;;;;;;;45.68;16.59;101035.25;5049641;28;19917;-63
2022/10/05 11:58:27;;;;;;;;;;;;;;;46.01;16.65;101042.69;5049825;28;19940;-64
2022/10/05 12:01:17;;;;;;;;;;;;;;;45.93;16.99;101047.28;5049619;28;19924;-64
2022/10/05 12:03:43;;;;;;;;;;;;;;;46.25;16.82;101051.09;5049471;28;19928;-64
2022/10/05 12:06:28;;;;;;;;;;;;;;;45.96;17.69;101049.94;5051120;28;20011;-64
2022/10/05 12:09:06;;;;;;;;;;;;;;;45.94;18.33;101048.88;5052994;28;19928;-64
2022/10/05 12:11:39;;;;;;;;;;;;;;;45.82;19.38;101044.28;5052869;28;19982;-63
2022/10/05 12:14:18;;;;;;;;;;;;;;;45.45;20.47;101045.63;5052944;28;20438;-64
2022/10/05 12:16:51;;;;;;;;;;;;;;;45.81;19.92;101049.25;5053116;28;19921;-64
2022/10/05 12:19:27;;;;;;;;;;;;;;;45.10;21.27;101053.41;5052772;28;19924;-64
2022/10/05 12:21:58;;;;;;;;;;;;;;;45.98;19.93;101053.13;5052393;28;20418;-64
2022/10/05 12:24:30;;;;;;;;;;;;;;;46.32;19.23;101051.41;5052825;28;19928;-64
2022/10/05 12:26:57;;;;;;;;;;;;;;;46.01;20.41;101055.00;5034980;28;19920;-64
2022/10/05 12:29:32;;;;;;;;;;;;;;;46.23;20.27;101062.31;5051235;28;19917;-63
2022/10/05 12:31:58;;;;;;;;;;;;;;;46.50;19.83;101069.66;5052772;27;20023;-63
2022/10/05 12:34:33;;;;;;;;;;;;;;;46.74;19.46;101073.03;5052190;28;19917;-64
2022/10/05 12:37:05;;;;;;;;;;;;;;;46.40;19.75;101077.69;5052516;28;19974;-64
2022/10/05 12:39:31;;;;;;;;;;;;;;;45.94;21.24;101064.03;5052431;28;20342;-64
2022/10/05 12:42:11;;;;;;;;;;;;;;;45.45;22.07;101080.06;5052519;27;19917;-64
2022/10/05 12:44:56;;;;;;;;;;;;;;;45.78;21.52;101074.00;5052481;28;19920;-64
2022/10/05 12:47:49;;;;;;;;;;;;;;;46.25;21.04;101071.22;5100527;27;19920;-64
2022/10/05 12:50:27;;;;;;;;;;;;;;;46.12;20.96;101068.69;5100909;27;20370;-64
2022/10/05 12:53:00;;;;;;;;;;;;;;;44.61;22.69;101069.22;5073348;27;19969;-65
2022/10/05 12:55:34;;;;;;;;;;;;;;;45.12;22.24;101074.56;5072781;27;19958;-65
2022/10/05 12:58:18;;;;;;;;;;;;;;;45.62;21.68;101076.66;5098393;27;19919;-65
2022/10/05 13:01:03;;;;;;;;;;;;;;;46.31;21.01;101081.47;5083234;27;19980;-64
2022/10/05 13:03:32;;;;;;;;;;;;;;;46.29;21.16;101094.78;5085013;27;19941;-64
2022/10/05 13:05:59;;;;;;;;;;;;;;;46.04;20.99;101081.94;5098231;27;19923;-64
2022/10/05 13:08:25;;;;;;;;;;;;;;;44.94;23.05;101083.41;5091924;27;19917;-64
2022/10/05 13:10:51;;;;;;;;;;;;;;;45.28;22.35;101079.03;5091071;27;19988;-64
2022/10/05 13:13:32;;;;;;;;;;;;;;;45.42;22.37;101091.75;5097807;27;19915;-64
2022/10/05 13:16:03;;;;;;;;;;;;;;;45.75;22.06;101103.75;5097548;27;19927;-64
2022/10/05 13:18:32;;;;;;;;;;;;;;;46.08;21.36;101097.66;5093044;27;19925;-65
2022/10/05 13:21:02;;;;;;;;;;;;;;;46.63;20.39;101101.69;5092346;27;19920;-65
2022/10/05 13:23:47;;;;;;;;;;;;;;;46.10;21.27;101105.78;5071261;27;20044;-65
2022/10/05 13:26:18;;;;;;;;;;;;;;;44.84;23.26;101099.09;5084531;27;19919;-65
2022/10/05 13:29:04;;;;;;;;;;;;;;;44.66;23.79;101107.88;5074757;27;20382;-65
2022/10/05 13:31:34;;;;;;;;;;;;;;;45.08;22.54;101108.44;5031050;28;19928;-64
2022/10/05 13:34:01;;;;;;;;;;;;;;;45.19;22.81;101111.47;5051626;28;19917;-63
2022/10/05 13:36:39;;;;;;;;;;;;;;;45.61;22.47;101106.66;5051154;28;20302;-63